Flight Track Log - Related Links

Times and Time Zones

All times are in EDT time to prevent confusion due to time zone crossing. See the DAL268 flight status page for this flight to view local times or setup timezone preferences in your user account.

Time Position Orientation Groundspeed Altitude Reporting Facility
EDT Latitude Longitude Course Direction KTS MPH feet Rate Location/Type
Tue 06:24:04 PM 33.6333 -84.4500 101° East 171 197 1,900  Level Atlanta TRACON
Tue 06:25:04 PM 33.6167 -84.5167 253° West 232 267 3,200 2,000 Climbing Atlanta TRACON
Tue 06:25:58 PM 33.5833 -84.5833 239° Southwest 265 305 5,700 2,474 Climbing Atlanta TRACON
Tue 06:26:00 PM 33.8512 -84.1471 73° East  Level Estimated
Tue 06:26:58 PM 33.5000 -84.5833 180° South 295 339 7,900  Level Atlanta TRACON
Tue 06:27:00 PM 33.9225 -84.0532 101° East  Level Estimated
Tue 06:28:00 PM 33.8493 -83.9613 134° Southeast  Level FlightAware Approximate
Tue 06:28:44 PM 33.4575 -84.4397 109° East 323 372 11,100  Level Atlanta Center
Tue 06:29:00 PM 33.9213 -83.8681 101° East  Level Estimated
Tue 06:29:44 PM 33.4578 -84.3153 90° East 347 399 12,300  Level Atlanta Center
Tue 06:30:44 PM 33.4914 -84.1883 72° East 379 436 14,200 2,050 Climbing Atlanta Center
Tue 06:31:44 PM 33.5458 -84.0661 62° Northeast 403 464 16,400 2,000 Climbing Atlanta Center
Tue 06:32:44 PM 33.5981 -83.9367 64° Northeast 420 483 18,200 1,700 Climbing Atlanta Center
Tue 06:33:44 PM 33.6292 -83.7942 75° East 432 497 19,800 1,600 Climbing Atlanta Center
Tue 06:34:44 PM 33.6622 -83.6469 75° East 445 512 21,400 1,450 Climbing Atlanta Center
Tue 06:35:44 PM 33.7139 -83.5044 66° East 459 528 22,700 1,350 Climbing Atlanta Center
Tue 06:36:44 PM 33.7653 -83.3792 64° Northeast 459 528 24,100 1,700 Climbing Atlanta Center
Tue 06:37:44 PM 33.8353 -83.2136 63° Northeast 459 528 26,100 1,700 Climbing Atlanta Center
Tue 06:38:44 PM 33.9033 -83.0803 58° Northeast 465 535 27,500 1,400 Climbing Atlanta Center
Tue 06:39:44 PM 33.9689 -82.9442 60° Northeast 465 535 28,900 1,250 Climbing Atlanta Center
Tue 06:40:44 PM 34.0322 -82.8156 59° Northeast 460 529 30,000 950 Climbing Atlanta Center
Tue 06:41:44 PM 34.0956 -82.6817 60° Northeast 460 529 30,800 800 Climbing Atlanta Center
Tue 06:42:44 PM 34.1589 -82.5478 60° Northeast 455 524 31,600 750 Climbing Atlanta Center
Tue 06:43:44 PM 34.2158 -82.4286 60° Northeast 455 524 32,300 650 Climbing Atlanta Center
Tue 06:44:44 PM 34.2786 -82.2967 60° Northeast 455 524 32,900 350 Climbing Atlanta Center
Tue 06:45:44 PM 34.3414 -82.1594 61° Northeast 455 524 33,000 50 Climbing Atlanta Center
Tue 06:46:44 PM 34.4058 -82.0222 60° Northeast 460 529 33,000  Level Atlanta Center
Tue 06:47:44 PM 34.4622 -81.8972 61° Northeast 465 535 33,000  Level Atlanta Center
Tue 06:48:44 PM 34.5406 -81.7314 60° Northeast 465 535 33,000  Level Atlanta Center
Tue 06:49:44 PM 34.6028 -81.5983 60° Northeast 460 529 33,000  Level Atlanta Center
Tue 06:50:44 PM 34.6628 -81.4781 59° Northeast 460 529 33,000  Level Atlanta Center
Tue 06:51:45 PM 34.7225 -81.3447 61° Northeast 455 524 33,000  Level Atlanta Center
Tue 06:52:44 PM 34.7861 -81.2036 61° Northeast 460 529 33,000  Level Atlanta Center
Tue 06:53:44 PM 34.8497 -81.0672 60° Northeast 465 535 33,000  Level Atlanta Center
Tue 06:54:44 PM 34.9172 -80.9206 61° Northeast 465 535 33,000  Level Atlanta Center
Tue 06:55:44 PM 34.9822 -80.7814 60° Northeast 465 535 33,000  Level Atlanta Center
Tue 06:58:10 PM 35.1286 -80.4553 61° Northeast 469 540 33,000  Level Washington Center
Tue 06:59:10 PM 35.1928 -80.3142 61° Northeast 464 534 33,000  Level Washington Center
Tue 07:00:11 PM 35.2503 -80.1728 63° Northeast 464 534 33,000  Level Washington Center
Tue 07:01:11 PM 35.2975 -80.0278 68° East 464 534 33,000  Level Washington Center
Tue 07:02:12 PM 35.3450 -79.8750 69° East 464 534 33,000  Level Washington Center
Tue 07:03:12 PM 35.3897 -79.7272 70° East 464 534 33,000  Level Washington Center
Tue 07:04:10 PM 35.4344 -79.5764 70° East 464 534 33,000  Level Washington Center
Tue 07:05:12 PM 35.4858 -79.4081 69° East 464 534 33,000  Level Washington Center
Tue 07:06:10 PM 35.5303 -79.2544 70° East 471 542 33,000  Level Washington Center
Tue 07:07:11 PM 35.5767 -79.1036 69° East 476 548 33,000  Level Washington Center
Tue 07:08:11 PM 35.6161 -78.9697 70° East 471 542 33,000  Level Washington Center
Tue 07:09:09 PM 35.6619 -78.8183 70° East 471 542 33,000  Level Washington Center
Tue 07:10:11 PM 35.7075 -78.6667 70° East 471 542 33,000  Level Washington Center
Tue 07:11:12 PM 35.7533 -78.5097 70° East 471 542 33,000  Level Washington Center
Tue 07:12:10 PM 35.7922 -78.3628 72° East 471 542 33,000  Level Washington Center
Tue 07:13:10 PM 35.8353 -78.2131 70° East 464 534 33,000  Level Washington Center
Tue 07:14:11 PM 35.8781 -78.0633 71° East 458 527 33,000  Level Washington Center
Tue 07:15:12 PM 35.9208 -77.9158 70° East 458 527 33,000  Level Washington Center
Tue 07:16:12 PM 35.9611 -77.7631 72° East 463 533 33,000  Level Washington Center
Tue 07:17:10 PM 36.0264 -77.6183 61° Northeast 458 527 33,000  Level Washington Center
Tue 07:18:10 PM 36.0969 -77.5097 51° Northeast 441 507 33,000  Level Washington Center
Tue 07:19:10 PM 36.1783 -77.3778 53° Northeast 447 514 33,000  Level Washington Center
Tue 07:20:11 PM 36.2531 -77.2583 52° Northeast 447 514 33,000  Level Washington Center
Tue 07:21:12 PM 36.3378 -77.1519 45° Northeast 442 509 33,000  Level Washington Center
Tue 07:22:09 PM 36.4225 -77.0683 38° Northeast 428 493 33,000  Level Washington Center
Tue 07:23:10 PM 36.5278 -76.9669 38° Northeast 428 493 33,000  Level Washington Center
Tue 07:24:11 PM 36.6208 -76.8756 38° Northeast 428 493 33,000 -148 Level Washington Center
Tue 07:25:12 PM 36.7156 -76.7889 36° Northeast 423 487 32,700 -1,008 Descending Washington Center
Tue 07:26:10 PM 36.8019 -76.7047 38° Northeast 411 473 31,000 -1,831 Descending Washington Center
Tue 07:27:10 PM 36.8819 -76.6253 38° Northeast 401 461 29,100 -992 Descending Washington Center
Tue 07:28:11 PM 36.9722 -76.5331 39° Northeast 401 461 29,000 -49 Descending Washington Center
Tue 07:29:12 PM 37.0669 -76.4431 37° Northeast 408 470 29,000  Level Washington Center
Tue 07:30:09 PM 37.1592 -76.3503 39° Northeast 419 482 29,000  Level Washington Center
Tue 07:31:10 PM 37.2517 -76.2572 39° Northeast 419 482 29,000  Level Washington Center
Tue 07:32:11 PM 37.3439 -76.1692 37° Northeast 419 482 29,000  Level Washington Center
Tue 07:33:10 PM 37.4486 -76.0731 36° Northeast 419 482 29,000 -50 Level Washington Center
Tue 07:34:10 PM 37.5406 -75.9822 38° Northeast 419 482 28,900  Descending Washington Center
Tue 07:35:10 PM 37.6325 -75.8933 37° Northeast 419 482 29,000 -744 Climbing Washington Center
Tue 07:36:11 PM 37.7244 -75.8019 38° Northeast 419 482 27,400 -992 Descending Washington Center
Tue 07:37:11 PM 37.8206 -75.7047 39° Northeast 419 482 27,000 -248 Descending Washington Center
Tue 07:38:12 PM 37.9144 -75.6103 38° Northeast 419 482 26,900  Descending Washington Center
Tue 07:39:12 PM 38.0106 -75.5153 38° Northeast 419 482 27,000 51 Climbing Washington Center
Tue 07:40:09 PM 38.1064 -75.4333 34° Northeast 419 482 27,000  Level Washington Center
Tue 07:41:10 PM 38.2125 -75.3725 24° Northeast 408 470 27,000  Level Washington Center
Tue 07:42:11 PM 38.3144 -75.3139 24° Northeast 402 463 27,000  Level Washington Center
Tue 07:43:12 PM 38.4103 -75.2419 30° Northeast 402 463 27,000  Level Washington Center
Tue 07:44:10 PM 38.5103 -75.1753 28° Northeast 402 463 27,000  Level Washington Center
Tue 07:45:10 PM 38.6100 -75.1133 26° Northeast 402 463 27,000  Level Washington Center
Tue 07:46:11 PM 38.7036 -75.0569 25° Northeast 408 470 27,000 -298 Level Washington Center
Tue 07:47:11 PM 38.8011 -74.9922 27° Northeast 402 463 26,400 -645 Descending Washington Center
Tue 07:48:12 PM 38.9011 -74.9300 26° Northeast 396 456 25,700 -1,091 Descending Washington Center
Tue 07:49:12 PM 38.9986 -74.8650 27° Northeast 396 456 24,200 -1,261 Descending Washington Center
Tue 07:50:11 PM 39.0981 -74.7944 29° Northeast 396 456 23,200 -1,150 Descending Washington Center
Tue 07:51:12 PM 39.1872 -74.7025 39° Northeast 396 456 21,900 -1,238 Descending Washington Center
Tue 07:52:17 PM 39.2928 -74.5908 39° Northeast 410 472 20,600 -1,152 Descending New York Center
Tue 07:53:17 PM 39.3750 -74.5011 40° Northeast 399 459 19,500 -1,150 Descending New York Center
Tue 07:54:17 PM 39.4506 -74.4192 40° Northeast 393 452 18,300 -750 Descending New York Center
Tue 07:55:17 PM 39.5347 -74.3267 40° Northeast 393 452 18,000 -150 Descending New York Center
Tue 07:56:17 PM 39.6186 -74.2367 40° Northeast 373 429 18,000 -1,100 Level New York Center
Tue 07:57:17 PM 39.6919 -74.1539 41° Northeast 352 405 15,800 -1,850 Descending New York Center
Tue 07:58:17 PM 39.7653 -74.0736 40° Northeast 341 392 14,300 -1,150 Descending New York Center
Tue 07:59:17 PM 39.8317 -74.0039 39° Northeast 341 392 13,500 -900 Descending New York Center
Tue 08:00:17 PM 39.9169 -73.9375 31° Northeast 334 384 12,500 -942 Descending New York Center
Tue 08:01:18 PM 39.9894 -73.8703 35° Northeast 329 379 11,600 -800 Descending New York Center
Tue 08:02:17 PM 40.0556 -73.8164 32° Northeast 295 339 10,900 -1,160 Descending New York Center
Tue 08:03:17 PM 40.1197 -73.7594 34° Northeast 275 316 9,300 -1,683 Descending New York Center
Tue 08:03:39 PM 40.1500 -73.7333 33° Northeast 275 316 8,600 -1,500 Descending New York TRACON
Tue 08:04:33 PM 40.2000 -73.7000 27° Northeast 268 308 7,400 -1,474 Descending New York TRACON
Tue 08:05:33 PM 40.2667 -73.6500 30° Northeast 271 312 5,800 -1,500 Descending New York TRACON
Tue 08:06:17 PM 40.3067 -73.6097 38° Northeast 269 310 4,800 -1,029 Descending New York Center
Tue 08:07:18 PM 40.3747 -73.5525 33° Northeast 264 304 4,000 -585 Descending New York Center
Tue 08:07:39 PM 40.4000 -73.5333 30° Northeast 264 304 4,000  Level New York TRACON
Tue 08:08:33 PM 40.4667 -73.5000 21° North 263 303 4,000  Level New York TRACON
Tue 08:09:33 PM 40.5333 -73.4667 21° North 262 302 4,000  Level New York TRACON
Tue 08:10:33 PM 40.6000 -73.4333 21° North 263 303 4,000  Level New York TRACON
Tue 08:11:33 PM 40.6667 -73.4000 21° North 262 302 4,000 -50 Level New York TRACON
Tue 08:12:33 PM 40.7333 -73.3833 11° North 264 304 3,900  Descending New York TRACON
Tue 08:13:39 PM 40.7833 -73.4500 315° West 210 242 4,000 48 Climbing New York TRACON
Tue 08:14:39 PM 40.8000 -73.5167 288° West 212 244 4,000 -474 Level New York TRACON
Tue 08:15:33 PM 40.8333 -73.5667 311° West 207 238 3,100 -842 Descending New York TRACON
Tue 08:16:33 PM 40.8167 -73.6167 246° West 180 207 2,400 -550 Descending New York TRACON
Tue 08:17:33 PM 40.7833 -73.6500 217° Southwest 158 182 2,000 -200 Descending New York TRACON
Tue 08:18:33 PM 40.7500 -73.6833 217° Southwest 157 181 2,000  Level New York TRACON

Login

Don't have an account? Register now (free) for customized features, flight alerts, and more!